sensor_id;sensor_type;location;lat;lon;timestamp;P1;durP1;ratioP1;P2;durP2;ratioP2
35961;SDS011;22044;48.298;10.008;2023-09-30T00:00:35;25.03;;;12.10;;
35961;SDS011;22044;48.298;10.008;2023-09-30T00:03:21;22.17;;;12.63;;
35961;SDS011;22044;48.298;10.008;2023-09-30T00:06:07;24.27;;;13.03;;
35961;SDS011;22044;48.298;10.008;2023-09-30T00:08:53;23.63;;;12.53;;
35961;SDS011;22044;48.298;10.008;2023-09-30T00:11:40;23.20;;;12.23;;
35961;SDS011;22044;48.298;10.008;2023-09-30T00:14:25;24.43;;;12.27;;
35961;SDS011;22044;48.298;10.008;2023-09-30T00:17:11;23.83;;;11.67;;
35961;SDS011;22044;48.298;10.008;2023-09-30T00:19:56;22.17;;;11.60;;
35961;SDS011;22044;48.298;10.008;2023-09-30T00:22:44;23.63;;;11.70;;
35961;SDS011;22044;48.298;10.008;2023-09-30T00:25:29;20.37;;;11.60;;
35961;SDS011;22044;48.298;10.008;2023-09-30T00:28:16;23.67;;;11.33;;
35961;SDS011;22044;48.298;10.008;2023-09-30T00:31:06;20.83;;;11.60;;
35961;SDS011;22044;48.298;10.008;2023-09-30T00:33:54;20.53;;;11.17;;
35961;SDS011;22044;48.298;10.008;2023-09-30T00:36:40;22.17;;;11.10;;
35961;SDS011;22044;48.298;10.008;2023-09-30T00:39:26;22.23;;;11.20;;
35961;SDS011;22044;48.298;10.008;2023-09-30T00:42:13;23.67;;;12.33;;
35961;SDS011;22044;48.298;10.008;2023-09-30T00:45:00;20.93;;;11.97;;
35961;SDS011;22044;48.298;10.008;2023-09-30T00:47:49;21.77;;;11.23;;
35961;SDS011;22044;48.298;10.008;2023-09-30T00:50:35;22.90;;;12.27;;
35961;SDS011;22044;48.298;10.008;2023-09-30T00:53:20;24.20;;;11.70;;
35961;SDS011;22044;48.298;10.008;2023-09-30T00:56:06;23.80;;;11.47;;
35961;SDS011;22044;48.298;10.008;2023-09-30T00:58:52;22.17;;;11.47;;
35961;SDS011;22044;48.298;10.008;2023-09-30T01:01:39;25.80;;;12.80;;
35961;SDS011;22044;48.298;10.008;2023-09-30T01:04:26;22.83;;;12.23;;
35961;SDS011;22044;48.298;10.008;2023-09-30T01:07:12;24.20;;;12.17;;
35961;SDS011;22044;48.298;10.008;2023-09-30T01:09:57;22.23;;;12.33;;
35961;SDS011;22044;48.298;10.008;2023-09-30T01:12:43;20.17;;;11.57;;
35961;SDS011;22044;48.298;10.008;2023-09-30T01:15:28;25.93;;;13.30;;
35961;SDS011;22044;48.298;10.008;2023-09-30T01:18:17;26.20;;;12.07;;
35961;SDS011;22044;48.298;10.008;2023-09-30T01:21:03;21.93;;;11.77;;
35961;SDS011;22044;48.298;10.008;2023-09-30T01:23:53;24.57;;;12.77;;
35961;SDS011;22044;48.298;10.008;2023-09-30T01:26:39;22.30;;;11.20;;
35961;SDS011;22044;48.298;10.008;2023-09-30T01:29:26;22.80;;;11.67;;
35961;SDS011;22044;48.298;10.008;2023-09-30T01:32:12;22.50;;;12.30;;
35961;SDS011;22044;48.298;10.008;2023-09-30T01:34:58;23.80;;;12.07;;
35961;SDS011;22044;48.298;10.008;2023-09-30T01:37:43;19.97;;;11.13;;
35961;SDS011;22044;48.298;10.008;2023-09-30T01:40:30;25.20;;;12.80;;
35961;SDS011;22044;48.298;10.008;2023-09-30T01:43:16;27.30;;;12.43;;
35961;SDS011;22044;48.298;10.008;2023-09-30T01:46:02;20.57;;;11.20;;
35961;SDS011;22044;48.298;10.008;2023-09-30T01:48:49;22.53;;;11.23;;
35961;SDS011;22044;48.298;10.008;2023-09-30T01:51:34;22.13;;;11.57;;
35961;SDS011;22044;48.298;10.008;2023-09-30T01:54:20;20.57;;;10.97;;
35961;SDS011;22044;48.298;10.008;2023-09-30T01:57:07;22.30;;;11.13;;
35961;SDS011;22044;48.298;10.008;2023-09-30T01:59:53;22.33;;;10.33;;
35961;SDS011;22044;48.298;10.008;2023-09-30T02:02:39;22.17;;;10.63;;
35961;SDS011;22044;48.298;10.008;2023-09-30T02:05:25;20.47;;;10.47;;
35961;SDS011;22044;48.298;10.008;2023-09-30T02:08:11;20.07;;;10.27;;
35961;SDS011;22044;48.298;10.008;2023-09-30T02:10:57;22.03;;;10.47;;
35961;SDS011;22044;48.298;10.008;2023-09-30T02:13:44;22.13;;;10.10;;
35961;SDS011;22044;48.298;10.008;2023-09-30T02:16:30;18.47;;;9.93;;
35961;SDS011;22044;48.298;10.008;2023-09-30T02:19:16;20.27;;;11.43;;
35961;SDS011;22044;48.298;10.008;2023-09-30T02:22:01;18.50;;;11.10;;
35961;SDS011;22044;48.298;10.008;2023-09-30T02:24:48;19.80;;;10.63;;
35961;SDS011;22044;48.298;10.008;2023-09-30T02:27:34;19.87;;;9.83;;
35961;SDS011;22044;48.298;10.008;2023-09-30T02:30:21;20.87;;;10.47;;
35961;SDS011;22044;48.298;10.008;2023-09-30T02:33:07;21.77;;;10.77;;
35961;SDS011;22044;48.298;10.008;2023-09-30T02:36:06;22.43;;;11.23;;
35961;SDS011;22044;48.298;10.008;2023-09-30T02:38:52;21.03;;;11.33;;
35961;SDS011;22044;48.298;10.008;2023-09-30T02:41:38;21.43;;;11.10;;
35961;SDS011;22044;48.298;10.008;2023-09-30T02:44:23;19.37;;;10.70;;
35961;SDS011;22044;48.298;10.008;2023-09-30T02:47:09;19.03;;;10.27;;
35961;SDS011;22044;48.298;10.008;2023-09-30T02:49:56;19.50;;;10.20;;
35961;SDS011;22044;48.298;10.008;2023-09-30T02:52:44;18.90;;;10.23;;
35961;SDS011;22044;48.298;10.008;2023-09-30T02:55:29;21.53;;;10.17;;
35961;SDS011;22044;48.298;10.008;2023-09-30T02:58:15;20.73;;;10.43;;
35961;SDS011;22044;48.298;10.008;2023-09-30T03:01:01;19.80;;;9.60;;
35961;SDS011;22044;48.298;10.008;2023-09-30T03:03:47;20.13;;;10.20;;
35961;SDS011;22044;48.298;10.008;2023-09-30T03:06:33;21.17;;;9.87;;
35961;SDS011;22044;48.298;10.008;2023-09-30T03:09:22;21.40;;;10.83;;
35961;SDS011;22044;48.298;10.008;2023-09-30T03:12:07;17.37;;;9.17;;
35961;SDS011;22044;48.298;10.008;2023-09-30T03:14:53;19.13;;;10.47;;
35961;SDS011;22044;48.298;10.008;2023-09-30T03:17:39;19.60;;;10.77;;
35961;SDS011;22044;48.298;10.008;2023-09-30T03:20:25;20.90;;;10.50;;
35961;SDS011;22044;48.298;10.008;2023-09-30T03:23:11;18.00;;;9.23;;
35961;SDS011;22044;48.298;10.008;2023-09-30T03:25:59;20.00;;;10.40;;
35961;SDS011;22044;48.298;10.008;2023-09-30T03:28:46;21.63;;;10.87;;
35961;SDS011;22044;48.298;10.008;2023-09-30T03:31:33;17.07;;;9.40;;
35961;SDS011;22044;48.298;10.008;2023-09-30T03:34:19;18.33;;;9.60;;
35961;SDS011;22044;48.298;10.008;2023-09-30T03:37:04;17.67;;;9.60;;
35961;SDS011;22044;48.298;10.008;2023-09-30T03:39:50;18.27;;;9.90;;
35961;SDS011;22044;48.298;10.008;2023-09-30T03:42:38;18.47;;;10.17;;
35961;SDS011;22044;48.298;10.008;2023-09-30T03:45:24;22.13;;;10.77;;
35961;SDS011;22044;48.298;10.008;2023-09-30T03:48:10;19.80;;;10.33;;
35961;SDS011;22044;48.298;10.008;2023-09-30T03:50:55;21.30;;;10.80;;
35961;SDS011;22044;48.298;10.008;2023-09-30T03:53:41;18.57;;;10.03;;
35961;SDS011;22044;48.298;10.008;2023-09-30T03:56:27;19.20;;;9.97;;
35961;SDS011;22044;48.298;10.008;2023-09-30T03:59:14;19.53;;;10.33;;
35961;SDS011;22044;48.298;10.008;2023-09-30T04:02:00;16.57;;;9.07;;
35961;SDS011;22044;48.298;10.008;2023-09-30T04:04:45;19.30;;;9.00;;
35961;SDS011;22044;48.298;10.008;2023-09-30T04:07:33;19.23;;;9.87;;
35961;SDS011;22044;48.298;10.008;2023-09-30T04:10:20;19.83;;;10.07;;
35961;SDS011;22044;48.298;10.008;2023-09-30T04:13:06;18.03;;;10.10;;
35961;SDS011;22044;48.298;10.008;2023-09-30T04:15:53;18.90;;;10.13;;
35961;SDS011;22044;48.298;10.008;2023-09-30T04:18:38;20.60;;;10.40;;
35961;SDS011;22044;48.298;10.008;2023-09-30T04:21:25;21.43;;;10.53;;
35961;SDS011;22044;48.298;10.008;2023-09-30T04:24:12;19.83;;;10.10;;
35961;SDS011;22044;48.298;10.008;2023-09-30T04:26:58;18.47;;;10.63;;
35961;SDS011;22044;48.298;10.008;2023-09-30T04:29:46;21.90;;;10.37;;
35961;SDS011;22044;48.298;10.008;2023-09-30T04:32:34;21.33;;;10.23;;
35961;SDS011;22044;48.298;10.008;2023-09-30T04:35:20;17.27;;;9.70;;
35961;SDS011;22044;48.298;10.008;2023-09-30T04:38:06;19.03;;;9.53;;
35961;SDS011;22044;48.298;10.008;2023-09-30T04:40:52;17.77;;;9.60;;
35961;SDS011;22044;48.298;10.008;2023-09-30T04:43:38;21.20;;;11.07;;
35961;SDS011;22044;48.298;10.008;2023-09-30T04:46:23;19.57;;;10.73;;
35961;SDS011;22044;48.298;10.008;2023-09-30T04:49:10;20.40;;;10.17;;
35961;SDS011;22044;48.298;10.008;2023-09-30T04:51:56;20.23;;;10.40;;
35961;SDS011;22044;48.298;10.008;2023-09-30T04:54:41;17.10;;;9.50;;
35961;SDS011;22044;48.298;10.008;2023-09-30T04:57:29;21.57;;;10.43;;
35961;SDS011;22044;48.298;10.008;2023-09-30T05:00:15;21.53;;;11.17;;
35961;SDS011;22044;48.298;10.008;2023-09-30T05:03:03;19.57;;;9.93;;
35961;SDS011;22044;48.298;10.008;2023-09-30T05:05:50;16.73;;;9.30;;
35961;SDS011;22044;48.298;10.008;2023-09-30T05:08:38;18.00;;;9.88;;
35961;SDS011;22044;48.298;10.008;2023-09-30T05:11:23;18.27;;;9.03;;
35961;SDS011;22044;48.298;10.008;2023-09-30T05:14:09;20.02;;;10.80;;
35961;SDS011;22044;48.298;10.008;2023-09-30T05:16:54;19.43;;;9.93;;
35961;SDS011;22044;48.298;10.008;2023-09-30T05:19:40;17.77;;;9.10;;
35961;SDS011;22044;48.298;10.008;2023-09-30T05:22:28;17.97;;;9.27;;
35961;SDS011;22044;48.298;10.008;2023-09-30T05:25:14;20.30;;;9.67;;
35961;SDS011;22044;48.298;10.008;2023-09-30T05:28:00;17.83;;;10.20;;
35961;SDS011;22044;48.298;10.008;2023-09-30T05:30:47;16.63;;;9.07;;
35961;SDS011;22044;48.298;10.008;2023-09-30T05:33:34;19.20;;;9.57;;
35961;SDS011;22044;48.298;10.008;2023-09-30T05:36:19;18.90;;;9.10;;
35961;SDS011;22044;48.298;10.008;2023-09-30T05:39:07;19.10;;;9.40;;
35961;SDS011;22044;48.298;10.008;2023-09-30T05:41:54;16.03;;;9.43;;
35961;SDS011;22044;48.298;10.008;2023-09-30T05:44:40;20.67;;;9.73;;
35961;SDS011;22044;48.298;10.008;2023-09-30T05:47:25;18.83;;;9.37;;
35961;SDS011;22044;48.298;10.008;2023-09-30T05:50:11;17.27;;;9.60;;
35961;SDS011;22044;48.298;10.008;2023-09-30T05:52:59;14.67;;;8.17;;
35961;SDS011;22044;48.298;10.008;2023-09-30T05:55:46;18.27;;;9.53;;
35961;SDS011;22044;48.298;10.008;2023-09-30T05:58:32;20.20;;;9.77;;
35961;SDS011;22044;48.298;10.008;2023-09-30T06:01:18;16.03;;;8.93;;
35961;SDS011;22044;48.298;10.008;2023-09-30T06:04:03;17.10;;;9.40;;
35961;SDS011;22044;48.298;10.008;2023-09-30T06:06:49;21.90;;;10.13;;
35961;SDS011;22044;48.298;10.008;2023-09-30T06:09:35;17.73;;;9.17;;
35961;SDS011;22044;48.298;10.008;2023-09-30T06:12:22;18.60;;;9.30;;
35961;SDS011;22044;48.298;10.008;2023-09-30T06:15:08;19.73;;;9.30;;
35961;SDS011;22044;48.298;10.008;2023-09-30T06:17:54;20.53;;;9.50;;
35961;SDS011;22044;48.298;10.008;2023-09-30T06:20:40;16.67;;;9.07;;
35961;SDS011;22044;48.298;10.008;2023-09-30T06:23:26;17.40;;;9.40;;
35961;SDS011;22044;48.298;10.008;2023-09-30T06:26:13;18.13;;;9.77;;
35961;SDS011;22044;48.298;10.008;2023-09-30T06:29:01;17.30;;;9.17;;
35961;SDS011;22044;48.298;10.008;2023-09-30T06:31:47;19.23;;;10.37;;
35961;SDS011;22044;48.298;10.008;2023-09-30T06:34:33;18.73;;;9.90;;
35961;SDS011;22044;48.298;10.008;2023-09-30T06:37:19;18.30;;;9.73;;
35961;SDS011;22044;48.298;10.008;2023-09-30T06:40:05;19.27;;;10.47;;
35961;SDS011;22044;48.298;10.008;2023-09-30T06:42:52;19.03;;;10.40;;
35961;SDS011;22044;48.298;10.008;2023-09-30T06:45:39;17.20;;;10.10;;
35961;SDS011;22044;48.298;10.008;2023-09-30T06:48:25;18.60;;;9.80;;
35961;SDS011;22044;48.298;10.008;2023-09-30T06:51:15;16.70;;;8.80;;
35961;SDS011;22044;48.298;10.008;2023-09-30T06:54:01;18.67;;;9.17;;
35961;SDS011;22044;48.298;10.008;2023-09-30T06:56:50;14.93;;;8.63;;
35961;SDS011;22044;48.298;10.008;2023-09-30T06:59:36;15.63;;;7.37;;
35961;SDS011;22044;48.298;10.008;2023-09-30T07:02:23;14.30;;;8.37;;
35961;SDS011;22044;48.298;10.008;2023-09-30T07:05:09;14.30;;;8.43;;
35961;SDS011;22044;48.298;10.008;2023-09-30T07:07:56;14.70;;;9.00;;
35961;SDS011;22044;48.298;10.008;2023-09-30T07:10:43;15.73;;;9.07;;
35961;SDS011;22044;48.298;10.008;2023-09-30T07:13:29;16.73;;;9.00;;
35961;SDS011;22044;48.298;10.008;2023-09-30T07:16:15;15.13;;;8.70;;
35961;SDS011;22044;48.298;10.008;2023-09-30T07:19:02;17.23;;;9.00;;
35961;SDS011;22044;48.298;10.008;2023-09-30T07:21:48;18.50;;;8.67;;
35961;SDS011;22044;48.298;10.008;2023-09-30T07:24:33;16.87;;;8.83;;
35961;SDS011;22044;48.298;10.008;2023-09-30T07:27:19;12.17;;;7.77;;
35961;SDS011;22044;48.298;10.008;2023-09-30T07:30:05;13.50;;;7.83;;
35961;SDS011;22044;48.298;10.008;2023-09-30T07:32:52;16.33;;;9.23;;
35961;SDS011;22044;48.298;10.008;2023-09-30T07:35:39;14.10;;;8.40;;
35961;SDS011;22044;48.298;10.008;2023-09-30T07:38:24;13.27;;;7.77;;
35961;SDS011;22044;48.298;10.008;2023-09-30T07:41:10;13.33;;;8.13;;
35961;SDS011;22044;48.298;10.008;2023-09-30T07:43:56;14.10;;;8.43;;
35961;SDS011;22044;48.298;10.008;2023-09-30T07:46:41;13.47;;;7.60;;
35961;SDS011;22044;48.298;10.008;2023-09-30T07:49:27;14.03;;;8.53;;
35961;SDS011;22044;48.298;10.008;2023-09-30T07:52:14;13.27;;;8.73;;
35961;SDS011;22044;48.298;10.008;2023-09-30T07:54:59;13.47;;;8.80;;
35961;SDS011;22044;48.298;10.008;2023-09-30T07:57:45;12.77;;;8.37;;
35961;SDS011;22044;48.298;10.008;2023-09-30T08:00:30;15.37;;;9.00;;
35961;SDS011;22044;48.298;10.008;2023-09-30T08:03:17;11.23;;;7.10;;
35961;SDS011;22044;48.298;10.008;2023-09-30T08:06:03;12.20;;;7.93;;
35961;SDS011;22044;48.298;10.008;2023-09-30T08:08:50;9.90;;;6.87;;
35961;SDS011;22044;48.298;10.008;2023-09-30T08:11:36;11.27;;;7.73;;
35961;SDS011;22044;48.298;10.008;2023-09-30T08:14:21;11.70;;;7.87;;
35961;SDS011;22044;48.298;10.008;2023-09-30T08:17:07;14.50;;;7.90;;
35961;SDS011;22044;48.298;10.008;2023-09-30T08:19:52;14.73;;;7.23;;
35961;SDS011;22044;48.298;10.008;2023-09-30T08:22:38;14.57;;;7.63;;
35961;SDS011;22044;48.298;10.008;2023-09-30T08:25:26;11.33;;;6.57;;
35961;SDS011;22044;48.298;10.008;2023-09-30T08:28:12;10.67;;;7.00;;
35961;SDS011;22044;48.298;10.008;2023-09-30T08:31:01;12.70;;;6.53;;
35961;SDS011;22044;48.298;10.008;2023-09-30T08:33:48;8.90;;;6.43;;
35961;SDS011;22044;48.298;10.008;2023-09-30T08:36:34;11.03;;;5.90;;
35961;SDS011;22044;48.298;10.008;2023-09-30T08:39:19;9.70;;;5.93;;
35961;SDS011;22044;48.298;10.008;2023-09-30T08:42:07;9.77;;;6.53;;
35961;SDS011;22044;48.298;10.008;2023-09-30T08:44:54;10.17;;;6.07;;
35961;SDS011;22044;48.298;10.008;2023-09-30T08:47:40;10.80;;;6.13;;
35961;SDS011;22044;48.298;10.008;2023-09-30T08:50:26;7.63;;;4.97;;
35961;SDS011;22044;48.298;10.008;2023-09-30T08:53:11;9.80;;;5.77;;
35961;SDS011;22044;48.298;10.008;2023-09-30T08:55:59;10.57;;;6.00;;
35961;SDS011;22044;48.298;10.008;2023-09-30T08:58:49;9.90;;;5.83;;
35961;SDS011;22044;48.298;10.008;2023-09-30T09:01:35;11.23;;;6.13;;
35961;SDS011;22044;48.298;10.008;2023-09-30T09:04:21;9.23;;;6.10;;
35961;SDS011;22044;48.298;10.008;2023-09-30T09:07:07;10.40;;;6.47;;
35961;SDS011;22044;48.298;10.008;2023-09-30T09:10:03;10.60;;;6.80;;
35961;SDS011;22044;48.298;10.008;2023-09-30T09:12:54;10.33;;;6.90;;
35961;SDS011;22044;48.298;10.008;2023-09-30T09:15:42;10.70;;;6.10;;
35961;SDS011;22044;48.298;10.008;2023-09-30T09:18:30;9.70;;;6.17;;
35961;SDS011;22044;48.298;10.008;2023-09-30T09:21:18;8.40;;;5.80;;
35961;SDS011;22044;48.298;10.008;2023-09-30T09:24:06;9.57;;;6.03;;
35961;SDS011;22044;48.298;10.008;2023-09-30T09:26:51;10.50;;;7.10;;
35961;SDS011;22044;48.298;10.008;2023-09-30T09:29:37;8.93;;;6.13;;
35961;SDS011;22044;48.298;10.008;2023-09-30T09:32:26;10.03;;;6.17;;
35961;SDS011;22044;48.298;10.008;2023-09-30T09:35:12;9.70;;;6.03;;
35961;SDS011;22044;48.298;10.008;2023-09-30T09:37:58;9.73;;;6.13;;
35961;SDS011;22044;48.298;10.008;2023-09-30T09:40:44;9.30;;;6.50;;
35961;SDS011;22044;48.298;10.008;2023-09-30T09:43:30;11.03;;;6.37;;
35961;SDS011;22044;48.298;10.008;2023-09-30T09:46:18;8.87;;;5.90;;
35961;SDS011;22044;48.298;10.008;2023-09-30T09:49:05;9.93;;;5.73;;
35961;SDS011;22044;48.298;10.008;2023-09-30T09:51:51;10.37;;;6.43;;
35961;SDS011;22044;48.298;10.008;2023-09-30T09:54:38;10.40;;;6.03;;
35961;SDS011;22044;48.298;10.008;2023-09-30T09:57:26;9.13;;;5.63;;
35961;SDS011;22044;48.298;10.008;2023-09-30T10:00:15;7.10;;;5.33;;
35961;SDS011;22044;48.298;10.008;2023-09-30T10:03:03;8.40;;;5.67;;
35961;SDS011;22044;48.298;10.008;2023-09-30T10:05:50;11.27;;;5.70;;
35961;SDS011;22044;48.298;10.008;2023-09-30T10:08:37;8.63;;;5.67;;
35961;SDS011;22044;48.298;10.008;2023-09-30T10:11:25;7.80;;;6.10;;
35961;SDS011;22044;48.298;10.008;2023-09-30T10:14:29;9.43;;;6.77;;
35961;SDS011;22044;48.298;10.008;2023-09-30T10:17:16;11.10;;;6.55;;
35961;SDS011;22044;48.298;10.008;2023-09-30T10:20:06;8.70;;;5.78;;
35961;SDS011;22044;48.298;10.008;2023-09-30T10:26:15;10.85;;;5.68;;
35961;SDS011;22044;48.298;10.008;2023-09-30T10:29:08;10.98;;;6.43;;
35961;SDS011;22044;48.298;10.008;2023-09-30T10:31:54;9.88;;;5.40;;
35961;SDS011;22044;48.298;10.008;2023-09-30T10:34:46;9.37;;;5.20;;
35961;SDS011;22044;48.298;10.008;2023-09-30T10:37:32;11.07;;;5.77;;
35961;SDS011;22044;48.298;10.008;2023-09-30T10:40:27;10.55;;;6.07;;
35961;SDS011;22044;48.298;10.008;2023-09-30T10:46:30;11.27;;;5.97;;
35961;SDS011;22044;48.298;10.008;2023-09-30T10:49:29;8.93;;;5.80;;
35961;SDS011;22044;48.298;10.008;2023-09-30T10:52:21;8.77;;;5.63;;
35961;SDS011;22044;48.298;10.008;2023-09-30T10:55:07;11.10;;;6.85;;
35961;SDS011;22044;48.298;10.008;2023-09-30T10:57:55;10.70;;;6.85;;
35961;SDS011;22044;48.298;10.008;2023-09-30T11:00:50;9.85;;;6.57;;
35961;SDS011;22044;48.298;10.008;2023-09-30T11:03:37;9.48;;;6.10;;
35961;SDS011;22044;48.298;10.008;2023-09-30T11:06:22;11.27;;;6.78;;
35961;SDS011;22044;48.298;10.008;2023-09-30T11:09:09;10.13;;;5.95;;
35961;SDS011;22044;48.298;10.008;2023-09-30T11:12:00;11.88;;;6.50;;
35961;SDS011;22044;48.298;10.008;2023-09-30T11:14:48;12.27;;;6.65;;
35961;SDS011;22044;48.298;10.008;2023-09-30T11:17:43;10.48;;;6.47;;
35961;SDS011;22044;48.298;10.008;2023-09-30T11:20:29;11.48;;;6.97;;
35961;SDS011;22044;48.298;10.008;2023-09-30T11:23:15;10.27;;;6.45;;
35961;SDS011;22044;48.298;10.008;2023-09-30T11:26:01;12.65;;;7.15;;
35961;SDS011;22044;48.298;10.008;2023-09-30T11:28:47;11.82;;;7.38;;
35961;SDS011;22044;48.298;10.008;2023-09-30T11:31:36;11.63;;;6.97;;
35961;SDS011;22044;48.298;10.008;2023-09-30T11:34:31;12.55;;;6.90;;
35961;SDS011;22044;48.298;10.008;2023-09-30T11:37:18;13.10;;;7.00;;
35961;SDS011;22044;48.298;10.008;2023-09-30T11:40:10;12.43;;;6.70;;
35961;SDS011;22044;48.298;10.008;2023-09-30T11:43:07;12.85;;;6.50;;
35961;SDS011;22044;48.298;10.008;2023-09-30T11:46:03;14.18;;;7.28;;
35961;SDS011;22044;48.298;10.008;2023-09-30T11:48:57;13.45;;;7.80;;
35961;SDS011;22044;48.298;10.008;2023-09-30T11:51:44;10.85;;;7.03;;
35961;SDS011;22044;48.298;10.008;2023-09-30T11:54:31;12.60;;;7.53;;
35961;SDS011;22044;48.298;10.008;2023-09-30T11:57:18;11.95;;;7.43;;
35961;SDS011;22044;48.298;10.008;2023-09-30T12:00:04;12.63;;;7.43;;
35961;SDS011;22044;48.298;10.008;2023-09-30T12:02:57;11.07;;;6.63;;
35961;SDS011;22044;48.298;10.008;2023-09-30T12:05:44;11.02;;;7.03;;
35961;SDS011;22044;48.298;10.008;2023-09-30T12:08:29;12.45;;;6.80;;
35961;SDS011;22044;48.298;10.008;2023-09-30T12:11:17;13.23;;;7.35;;
35961;SDS011;22044;48.298;10.008;2023-09-30T12:14:02;14.90;;;8.43;;
35961;SDS011;22044;48.298;10.008;2023-09-30T12:16:48;11.20;;;7.30;;
35961;SDS011;22044;48.298;10.008;2023-09-30T12:19:34;14.68;;;7.60;;
35961;SDS011;22044;48.298;10.008;2023-09-30T12:22:21;14.48;;;8.15;;
35961;SDS011;22044;48.298;10.008;2023-09-30T12:25:07;12.18;;;7.68;;
35961;SDS011;22044;48.298;10.008;2023-09-30T12:27:53;12.13;;;7.97;;
35961;SDS011;22044;48.298;10.008;2023-09-30T12:30:39;15.27;;;8.10;;
35961;SDS011;22044;48.298;10.008;2023-09-30T12:33:27;15.18;;;8.98;;
35961;SDS011;22044;48.298;10.008;2023-09-30T12:36:12;13.07;;;8.35;;
35961;SDS011;22044;48.298;10.008;2023-09-30T12:38:59;13.18;;;8.40;;
35961;SDS011;22044;48.298;10.008;2023-09-30T12:41:45;16.85;;;9.73;;
35961;SDS011;22044;48.298;10.008;2023-09-30T12:44:30;14.02;;;8.02;;
35961;SDS011;22044;48.298;10.008;2023-09-30T12:47:17;14.48;;;8.27;;
35961;SDS011;22044;48.298;10.008;2023-09-30T12:50:03;16.05;;;9.13;;
35961;SDS011;22044;48.298;10.008;2023-09-30T12:52:49;12.82;;;8.02;;
35961;SDS011;22044;48.298;10.008;2023-09-30T12:55:36;14.45;;;9.15;;
35961;SDS011;22044;48.298;10.008;2023-09-30T12:58:21;18.00;;;9.43;;
35961;SDS011;22044;48.298;10.008;2023-09-30T13:01:07;14.65;;;8.38;;
35961;SDS011;22044;48.298;10.008;2023-09-30T13:03:52;14.30;;;8.68;;
35961;SDS011;22044;48.298;10.008;2023-09-30T13:06:38;15.57;;;8.98;;
35961;SDS011;22044;48.298;10.008;2023-09-30T13:09:24;16.05;;;8.85;;
35961;SDS011;22044;48.298;10.008;2023-09-30T13:12:11;15.35;;;9.25;;
35961;SDS011;22044;48.298;10.008;2023-09-30T13:14:57;15.98;;;9.48;;
35961;SDS011;22044;48.298;10.008;2023-09-30T13:17:43;14.48;;;8.82;;
35961;SDS011;22044;48.298;10.008;2023-09-30T13:20:28;16.90;;;9.57;;
35961;SDS011;22044;48.298;10.008;2023-09-30T13:23:14;15.18;;;8.40;;
35961;SDS011;22044;48.298;10.008;2023-09-30T13:26:00;12.80;;;7.90;;
35961;SDS011;22044;48.298;10.008;2023-09-30T13:28:47;15.32;;;8.55;;
35961;SDS011;22044;48.298;10.008;2023-09-30T13:31:32;15.90;;;7.82;;
35961;SDS011;22044;48.298;10.008;2023-09-30T13:34:18;13.40;;;7.20;;
35961;SDS011;22044;48.298;10.008;2023-09-30T13:37:03;13.70;;;7.35;;
35961;SDS011;22044;48.298;10.008;2023-09-30T13:39:49;15.18;;;7.95;;
35961;SDS011;22044;48.298;10.008;2023-09-30T13:42:35;12.55;;;6.53;;
35961;SDS011;22044;48.298;10.008;2023-09-30T13:45:22;12.32;;;6.57;;
35961;SDS011;22044;48.298;10.008;2023-09-30T13:48:08;13.43;;;7.72;;
35961;SDS011;22044;48.298;10.008;2023-09-30T13:50:55;13.18;;;7.68;;
35961;SDS011;22044;48.298;10.008;2023-09-30T13:53:48;13.63;;;7.75;;
35961;SDS011;22044;48.298;10.008;2023-09-30T13:56:35;12.45;;;7.22;;
35961;SDS011;22044;48.298;10.008;2023-09-30T13:59:21;11.85;;;7.57;;
35961;SDS011;22044;48.298;10.008;2023-09-30T14:02:09;10.18;;;6.63;;
35961;SDS011;22044;48.298;10.008;2023-09-30T14:04:54;13.00;;;7.82;;
35961;SDS011;22044;48.298;10.008;2023-09-30T14:07:40;12.15;;;6.95;;
35961;SDS011;22044;48.298;10.008;2023-09-30T14:10:26;12.68;;;7.22;;
35961;SDS011;22044;48.298;10.008;2023-09-30T14:13:13;13.25;;;8.05;;
35961;SDS011;22044;48.298;10.008;2023-09-30T14:15:59;17.30;;;7.68;;
35961;SDS011;22044;48.298;10.008;2023-09-30T14:18:46;20.02;;;8.23;;
35961;SDS011;22044;48.298;10.008;2023-09-30T14:21:33;13.95;;;7.32;;
35961;SDS011;22044;48.298;10.008;2023-09-30T14:24:19;12.25;;;7.65;;
35961;SDS011;22044;48.298;10.008;2023-09-30T14:27:04;13.00;;;7.65;;
35961;SDS011;22044;48.298;10.008;2023-09-30T14:29:51;12.15;;;7.57;;
35961;SDS011;22044;48.298;10.008;2023-09-30T14:32:36;11.73;;;7.03;;
35961;SDS011;22044;48.298;10.008;2023-09-30T14:35:24;13.07;;;7.82;;
35961;SDS011;22044;48.298;10.008;2023-09-30T14:38:09;10.18;;;6.90;;
35961;SDS011;22044;48.298;10.008;2023-09-30T14:40:55;9.85;;;6.57;;
35961;SDS011;22044;48.298;10.008;2023-09-30T14:43:41;13.45;;;8.02;;
35961;SDS011;22044;48.298;10.008;2023-09-30T14:46:26;12.35;;;7.72;;
35961;SDS011;22044;48.298;10.008;2023-09-30T14:49:12;14.93;;;8.20;;
35961;SDS011;22044;48.298;10.008;2023-09-30T14:51:59;14.73;;;7.55;;
35961;SDS011;22044;48.298;10.008;2023-09-30T14:54:46;12.32;;;7.40;;
35961;SDS011;22044;48.298;10.008;2023-09-30T14:57:32;12.60;;;6.88;;
35961;SDS011;22044;48.298;10.008;2023-09-30T15:00:18;16.17;;;7.88;;
35961;SDS011;22044;48.298;10.008;2023-09-30T15:03:06;13.52;;;7.30;;
35961;SDS011;22044;48.298;10.008;2023-09-30T15:05:57;13.57;;;7.80;;
35961;SDS011;22044;48.298;10.008;2023-09-30T15:08:46;12.73;;;7.50;;
35961;SDS011;22044;48.298;10.008;2023-09-30T15:11:32;12.52;;;7.82;;
35961;SDS011;22044;48.298;10.008;2023-09-30T15:14:18;13.82;;;7.03;;
35961;SDS011;22044;48.298;10.008;2023-09-30T15:17:03;13.88;;;7.93;;
35961;SDS011;22044;48.298;10.008;2023-09-30T15:19:49;13.85;;;8.18;;
35961;SDS011;22044;48.298;10.008;2023-09-30T15:22:35;12.65;;;7.57;;
35961;SDS011;22044;48.298;10.008;2023-09-30T15:25:22;13.23;;;7.95;;
35961;SDS011;22044;48.298;10.008;2023-09-30T15:28:08;17.05;;;9.75;;
35961;SDS011;22044;48.298;10.008;2023-09-30T15:30:54;13.13;;;8.25;;
35961;SDS011;22044;48.298;10.008;2023-09-30T15:33:41;12.18;;;7.72;;
35961;SDS011;22044;48.298;10.008;2023-09-30T15:36:28;15.73;;;8.85;;
35961;SDS011;22044;48.298;10.008;2023-09-30T15:39:13;11.48;;;7.82;;
35961;SDS011;22044;48.298;10.008;2023-09-30T15:42:01;14.10;;;8.73;;
35961;SDS011;22044;48.298;10.008;2023-09-30T15:44:47;13.18;;;8.30;;
35961;SDS011;22044;48.298;10.008;2023-09-30T15:47:32;11.77;;;8.02;;
35961;SDS011;22044;48.298;10.008;2023-09-30T15:50:21;15.63;;;9.02;;
35961;SDS011;22044;48.298;10.008;2023-09-30T15:53:07;14.32;;;9.13;;
35961;SDS011;22044;48.298;10.008;2023-09-30T15:55:52;13.23;;;8.30;;
35961;SDS011;22044;48.298;10.008;2023-09-30T15:58:39;14.90;;;8.57;;
35961;SDS011;22044;48.298;10.008;2023-09-30T16:01:25;13.77;;;9.02;;
35961;SDS011;22044;48.298;10.008;2023-09-30T16:04:10;13.15;;;8.98;;
35961;SDS011;22044;48.298;10.008;2023-09-30T16:06:56;15.07;;;8.75;;
35961;SDS011;22044;48.298;10.008;2023-09-30T16:09:43;12.85;;;8.80;;
35961;SDS011;22044;48.298;10.008;2023-09-30T16:12:28;15.98;;;9.23;;
35961;SDS011;22044;48.298;10.008;2023-09-30T16:15:15;16.50;;;9.68;;
35961;SDS011;22044;48.298;10.008;2023-09-30T16:18:01;17.85;;;9.48;;